Time;durP1;ratioP1;P1;durP2;ratioP2;P2;SDS_P1;SDS_P2;PMS_P1;PMS_P2;Temp;Humidity;BMP_temperature;BMP_pressure;BME280_temperature;BME280_humidity;BME280_pressure;Samples;Min_cycle;Max_cycle;Signal;HPM_P1;HPM_P2
2022/12/10 00:01:55;;;;;;;8.68;4.57;;;;;;;;;;5124691;28;20047;-73
2022/12/10 00:04:25;;;;;;;18.40;4.90;;;;;;;;;;5123127;28;20046;-73
2022/12/10 00:06:55;;;;;;;7.47;4.30;;;;;;;;;;5125668;28;20043;-72
2022/12/10 00:09:25;;;;;;;7.47;3.85;;;;;;;;;;5123252;28;20497;-72
2022/12/10 00:11:55;;;;;;;7.40;4.57;;;;;;;;;;5125624;28;20405;-73
2022/12/10 00:14:35;;;;;;;7.25;4.25;;;;;;;;;;5108697;28;20047;-73
2022/12/10 00:17:05;;;;;;;10.85;4.45;;;;;;;;;;5124761;28;20047;-73
2022/12/10 00:19:41;;;;;;;6.18;3.83;;;;;;;;;;5125778;28;20490;-72
2022/12/10 00:22:10;;;;;;;8.20;4.38;;;;;;;;;;5125832;28;20046;-73
2022/12/10 00:24:40;;;;;;;8.77;4.88;;;;;;;;;;5128913;27;20039;-76
2022/12/10 00:27:14;;;;;;;7.80;4.78;;;;;;;;;;5130624;27;20050;-79
2022/12/10 00:29:44;;;;;;;8.93;3.80;;;;;;;;;;5122360;27;20620;-73
2022/12/10 00:32:14;;;;;;;10.00;4.45;;;;;;;;;;5130372;27;20499;-73
2022/12/10 00:34:44;;;;;;;11.75;5.68;;;;;;;;;;5130331;27;20387;-73
2022/12/10 00:37:13;;;;;;;7.97;3.95;;;;;;;;;;5128090;27;20074;-75
2022/12/10 00:39:43;;;;;;;8.95;4.00;;;;;;;;;;5127996;27;20039;-73
2022/12/10 00:42:13;;;;;;;7.88;3.60;;;;;;;;;;5126546;27;20054;-76
2022/12/10 00:44:43;;;;;;;6.88;3.97;;;;;;;;;;5126844;27;20043;-74
2022/12/10 00:47:12;;;;;;;7.50;4.50;;;;;;;;;;5126809;27;20382;-76
2022/12/10 00:49:42;;;;;;;15.52;4.95;;;;;;;;;;5129313;27;20138;-75
2022/12/10 00:52:13;;;;;;;7.15;4.68;;;;;;;;;;5126944;27;20497;-74
2022/12/10 00:54:43;;;;;;;6.47;4.10;;;;;;;;;;5127061;27;20055;-76
2022/12/10 00:57:16;;;;;;;8.65;4.57;;;;;;;;;;5129743;27;20050;-74
2022/12/10 00:59:46;;;;;;;10.38;5.10;;;;;;;;;;5129998;27;20047;-72
2022/12/10 01:02:16;;;;;;;6.47;3.83;;;;;;;;;;5109904;27;20047;-74
2022/12/10 01:04:46;;;;;;;7.82;4.57;;;;;;;;;;5107345;28;20422;-74
2022/12/10 01:07:16;;;;;;;7.78;3.90;;;;;;;;;;5107861;28;20058;-73
2022/12/10 01:09:46;;;;;;;6.50;3.75;;;;;;;;;;5107815;28;20047;-75
2022/12/10 01:12:16;;;;;;;6.78;4.05;;;;;;;;;;5108272;28;20054;-73
2022/12/10 01:14:46;;;;;;;8.45;4.60;;;;;;;;;;5109033;28;20047;-74
2022/12/10 01:17:21;;;;;;;7.75;4.65;;;;;;;;;;5107828;28;20040;-75
2022/12/10 01:19:51;;;;;;;6.15;4.22;;;;;;;;;;5107479;28;20525;-78
2022/12/10 01:22:22;;;;;;;13.88;3.90;;;;;;;;;;5107149;28;20055;-74
2022/12/10 01:24:51;;;;;;;9.30;4.18;;;;;;;;;;5106434;28;20052;-76
2022/12/10 01:27:21;;;;;;;8.75;5.07;;;;;;;;;;5089877;28;20430;-73
2022/12/10 01:29:51;;;;;;;9.70;4.93;;;;;;;;;;5108607;28;20046;-72
2022/12/10 01:32:20;;;;;;;8.40;4.38;;;;;;;;;;5107196;28;20043;-74
2022/12/10 01:34:50;;;;;;;5.45;4.28;;;;;;;;;;5107353;28;20055;-74
2022/12/10 01:37:20;;;;;;;8.85;4.22;;;;;;;;;;5107046;28;20059;-76
2022/12/10 01:39:50;;;;;;;8.85;5.10;;;;;;;;;;5108285;28;20048;-73
2022/12/10 01:42:20;;;;;;;7.75;4.22;;;;;;;;;;5108382;28;20044;-72
2022/12/10 01:44:50;;;;;;;6.15;4.10;;;;;;;;;;5108982;28;20044;-74
2022/12/10 01:47:21;;;;;;;9.90;4.25;;;;;;;;;;5108500;28;20054;-74
2022/12/10 01:49:51;;;;;;;13.07;5.22;;;;;;;;;;5106727;28;20048;-74
2022/12/10 01:52:21;;;;;;;10.15;4.78;;;;;;;;;;5108112;28;20078;-81
2022/12/10 01:54:51;;;;;;;13.13;5.20;;;;;;;;;;5106802;28;20051;-75
2022/12/10 01:57:24;;;;;;;7.85;4.50;;;;;;;;;;5107669;28;20051;-72
2022/12/10 02:00:01;;;;;;;7.95;4.78;;;;;;;;;;5108038;28;20533;-74
2022/12/10 02:02:46;;;;;;;7.05;4.38;;;;;;;;;;5111496;28;20051;-75
2022/12/10 02:05:45;;;;;;;8.65;5.00;;;;;;;;;;5107870;28;20048;-75
2022/12/10 02:08:46;;;;;;;10.13;4.78;;;;;;;;;;5107794;28;20510;-75
2022/12/10 02:11:26;;;;;;;10.48;5.22;;;;;;;;;;5106794;28;20064;-76
2022/12/10 02:14:07;;;;;;;8.10;4.13;;;;;;;;;;5105999;28;20051;-76
2022/12/10 02:16:44;;;;;;;7.40;5.20;;;;;;;;;;5105957;28;20052;-75
2022/12/10 02:19:34;;;;;;;13.75;5.20;;;;;;;;;;5089216;28;20067;-74
2022/12/10 02:22:06;;;;;;;8.55;4.97;;;;;;;;;;5106079;28;20843;-72
2022/12/10 02:24:39;;;;;;;14.35;6.20;;;;;;;;;;5106084;28;20051;-73
2022/12/10 02:27:50;;;;;;;13.95;5.95;;;;;;;;;;5105560;28;20055;-75
2022/12/10 02:30:20;;;;;;;12.52;4.60;;;;;;;;;;5105211;28;20441;-74
2022/12/10 02:32:51;;;;;;;12.43;4.63;;;;;;;;;;5106438;28;20059;-75
2022/12/10 02:35:29;;;;;;;12.48;5.85;;;;;;;;;;5106011;28;20055;-73
2022/12/10 02:38:34;;;;;;;11.88;5.30;;;;;;;;;;5106476;28;20047;-74
2022/12/10 02:41:18;;;;;;;11.73;5.80;;;;;;;;;;5074592;28;20055;-74
2022/12/10 02:43:53;;;;;;;9.25;5.22;;;;;;;;;;5105206;28;20529;-75
2022/12/10 02:46:28;;;;;;;9.27;5.25;;;;;;;;;;5104920;28;20059;-74
2022/12/10 02:49:06;;;;;;;10.05;4.57;;;;;;;;;;5105123;28;20059;-77
2022/12/10 02:51:37;;;;;;;12.38;5.32;;;;;;;;;;5104976;28;20794;-74
2022/12/10 02:54:33;;;;;;;8.63;4.40;;;;;;;;;;5106424;28;20506;-75
2022/12/10 02:57:20;;;;;;;8.45;4.60;;;;;;;;;;5105282;28;20054;-73
2022/12/10 03:00:15;;;;;;;10.80;4.40;;;;;;;;;;5105234;28;20081;-75
2022/12/10 03:03:14;;;;;;;13.20;5.00;;;;;;;;;;5106790;28;20031;-76
2022/12/10 03:06:16;;;;;;;8.48;4.30;;;;;;;;;;5107282;28;20482;-72
2022/12/10 03:08:54;;;;;;;8.43;5.03;;;;;;;;;;5107150;28;20044;-72
2022/12/10 03:11:25;;;;;;;11.02;6.07;;;;;;;;;;5106506;28;20044;-74
2022/12/10 03:14:23;;;;;;;9.85;4.93;;;;;;;;;;5106333;28;20044;-74
2022/12/10 03:16:59;;;;;;;12.38;6.18;;;;;;;;;;5106419;28;20399;-75
2022/12/10 03:19:56;;;;;;;12.60;5.85;;;;;;;;;;5106362;28;20039;-74
2022/12/10 03:22:28;;;;;;;16.17;5.88;;;;;;;;;;5105490;28;20509;-72
2022/12/10 03:25:00;;;;;;;10.25;4.97;;;;;;;;;;5106543;28;20044;-73
2022/12/10 03:27:30;;;;;;;11.55;5.85;;;;;;;;;;5104571;28;20444;-73
2022/12/10 03:30:01;;;;;;;9.55;5.68;;;;;;;;;;5107049;28;20052;-82
2022/12/10 03:32:32;;;;;;;9.48;5.82;;;;;;;;;;5107127;28;20066;-75
2022/12/10 03:35:04;;;;;;;11.27;5.95;;;;;;;;;;5106606;28;20062;-73
2022/12/10 03:37:34;;;;;;;17.70;6.43;;;;;;;;;;5110137;28;20063;-73
2022/12/10 03:40:06;;;;;;;9.85;5.43;;;;;;;;;;5107979;28;20047;-73
2022/12/10 03:42:37;;;;;;;14.50;5.82;;;;;;;;;;5106608;28;20056;-75
2022/12/10 03:45:07;;;;;;;11.27;6.03;;;;;;;;;;5106784;28;20039;-74
2022/12/10 03:47:37;;;;;;;14.77;5.95;;;;;;;;;;5105976;28;20495;-73
2022/12/10 03:50:09;;;;;;;10.00;6.10;;;;;;;;;;5105503;28;20430;-75
2022/12/10 03:52:39;;;;;;;8.07;4.90;;;;;;;;;;5105591;28;20067;-73
2022/12/10 03:55:09;;;;;;;10.52;5.65;;;;;;;;;;5105872;28;20059;-73
2022/12/10 03:57:39;;;;;;;10.13;5.80;;;;;;;;;;5106774;28;20051;-74
2022/12/10 04:00:10;;;;;;;7.63;5.95;;;;;;;;;;5111065;28;20051;-74
2022/12/10 04:02:42;;;;;;;11.60;5.95;;;;;;;;;;5109709;28;20062;-73
2022/12/10 04:05:12;;;;;;;8.30;5.25;;;;;;;;;;5110513;28;20387;-74
2022/12/10 04:07:41;;;;;;;10.27;5.35;;;;;;;;;;5110266;28;20059;-74
2022/12/10 04:10:12;;;;;;;9.95;5.20;;;;;;;;;;5108681;28;20051;-75
2022/12/10 04:12:42;;;;;;;9.52;5.85;;;;;;;;;;5107949;28;20047;-74
2022/12/10 04:18:00;;;;;;;11.77;5.28;;;;;;;;;;5110363;28;20588;-74
2022/12/10 04:28:55;;;;;;;11.70;6.15;;;;;;;;;;5110104;28;20502;-74
2022/12/10 04:31:25;;;;;;;14.00;5.82;;;;;;;;;;5110219;28;20055;-74
2022/12/10 04:33:55;;;;;;;10.43;6.57;;;;;;;;;;5109783;28;21029;-74
2022/12/10 04:36:24;;;;;;;12.88;5.97;;;;;;;;;;5109755;28;20047;-74
2022/12/10 04:38:54;;;;;;;11.60;5.53;;;;;;;;;;5109646;28;20058;-75
2022/12/10 04:41:24;;;;;;;13.45;5.97;;;;;;;;;;5109749;28;20040;-75
2022/12/10 04:43:53;;;;;;;11.07;5.90;;;;;;;;;;5109741;28;20055;-76
2022/12/10 04:46:24;;;;;;;10.65;6.07;;;;;;;;;;5109064;28;20498;-75
2022/12/10 04:48:54;;;;;;;11.70;5.72;;;;;;;;;;5109577;28;20040;-75
2022/12/10 04:51:23;;;;;;;9.00;6.13;;;;;;;;;;5109810;28;20055;-75
2022/12/10 04:53:53;;;;;;;9.65;5.07;;;;;;;;;;5109089;28;20051;-74
2022/12/10 04:56:23;;;;;;;11.15;5.10;;;;;;;;;;5107769;28;20091;-74
2022/12/10 04:58:56;;;;;;;11.27;5.15;;;;;;;;;;5109167;28;20047;-75
2022/12/10 05:01:27;;;;;;;8.95;5.07;;;;;;;;;;5109043;28;20055;-73
2022/12/10 05:04:02;;;;;;;8.23;5.10;;;;;;;;;;5108869;28;20517;-77
2022/12/10 05:06:33;;;;;;;;;;;;;;;;;;5108779;28;20052;-73
2022/12/10 05:09:04;;;;;;;10.82;4.63;;;;;;;;;;5109141;28;19928;-73
2022/12/10 05:11:34;;;;;;;7.70;4.65;;;;;;;;;;5108852;28;20050;-75
2022/12/10 05:14:04;;;;;;;7.40;4.60;;;;;;;;;;5108693;28;20505;-73
2022/12/10 05:16:34;;;;;;;10.23;5.35;;;;;;;;;;5107450;28;20043;-74
2022/12/10 05:19:04;;;;;;;10.85;5.75;;;;;;;;;;5107500;28;20039;-74
2022/12/10 05:24:23;;;;;;;14.88;5.60;;;;;;;;;;5109242;28;20043;-75
2022/12/10 05:26:53;;;;;;;15.23;6.50;;;;;;;;;;5108338;28;20046;-73
2022/12/10 05:29:22;;;;;;;13.75;5.95;;;;;;;;;;5108887;28;20058;-74
2022/12/10 05:31:52;;;;;;;15.15;6.20;;;;;;;;;;5107579;28;20055;-74
2022/12/10 05:34:22;;;;;;;12.10;5.57;;;;;;;;;;5108483;28;20362;-73
2022/12/10 05:36:54;;;;;;;11.02;5.50;;;;;;;;;;5107723;28;20059;-74
2022/12/10 05:39:24;;;;;;;12.63;6.28;;;;;;;;;;5107232;28;20044;-72
2022/12/10 05:41:54;;;;;;;10.93;6.15;;;;;;;;;;5106383;28;20043;-74
2022/12/10 05:44:24;;;;;;;13.25;5.30;;;;;;;;;;5108229;28;20043;-74
2022/12/10 05:46:54;;;;;;;12.73;5.90;;;;;;;;;;5108083;28;20055;-75
2022/12/10 05:49:24;;;;;;;9.48;5.25;;;;;;;;;;5108310;28;20043;-75
2022/12/10 05:51:56;;;;;;;12.05;5.65;;;;;;;;;;5108421;28;20054;-75
2022/12/10 05:54:26;;;;;;;11.48;5.90;;;;;;;;;;5108296;28;20520;-75
2022/12/10 05:56:56;;;;;;;10.35;4.75;;;;;;;;;;5107278;28;20062;-74
2022/12/10 05:59:26;;;;;;;11.70;6.47;;;;;;;;;;5108159;28;20040;-74
2022/12/10 06:01:56;;;;;;;12.32;5.07;;;;;;;;;;5108468;28;20043;-73
2022/12/10 06:04:26;;;;;;;21.08;6.80;;;;;;;;;;5107127;28;20039;-74
2022/12/10 06:06:57;;;;;;;10.10;5.43;;;;;;;;;;5106361;28;20067;-75
2022/12/10 06:09:28;;;;;;;12.07;5.63;;;;;;;;;;5107780;28;20040;-73
2022/12/10 06:11:57;;;;;;;13.43;5.95;;;;;;;;;;5107938;28;20040;-75
2022/12/10 06:14:27;;;;;;;13.57;6.85;;;;;;;;;;5108396;28;20043;-75
2022/12/10 06:16:57;;;;;;;9.63;5.70;;;;;;;;;;5107889;28;20051;-75
2022/12/10 06:19:27;;;;;;;11.00;5.15;;;;;;;;;;5107868;28;20402;-73
2022/12/10 06:21:57;;;;;;;11.63;6.47;;;;;;;;;;5108551;28;20395;-73
2022/12/10 06:24:28;;;;;;;7.68;5.88;;;;;;;;;;5109641;28;20054;-74
2022/12/10 06:26:59;;;;;;;10.52;5.93;;;;;;;;;;5107678;28;20048;-74
2022/12/10 06:29:28;;;;;;;12.73;6.38;;;;;;;;;;5107881;28;20051;-75
2022/12/10 06:31:58;;;;;;;11.60;5.53;;;;;;;;;;5107621;28;20059;-75
2022/12/10 06:34:28;;;;;;;9.75;5.13;;;;;;;;;;5107195;28;20052;-73
2022/12/10 06:36:58;;;;;;;9.30;5.18;;;;;;;;;;5107368;28;20051;-75
2022/12/10 06:39:28;;;;;;;10.32;6.53;;;;;;;;;;5107288;28;20533;-73
2022/12/10 06:41:58;;;;;;;10.32;6.38;;;;;;;;;;5107326;28;20031;-72
2022/12/10 06:44:28;;;;;;;9.88;6.10;;;;;;;;;;5107281;28;20077;-73
2022/12/10 06:46:59;;;;;;;11.70;5.03;;;;;;;;;;5106879;28;20059;-75
2022/12/10 06:49:29;;;;;;;11.80;6.28;;;;;;;;;;5107475;28;20070;-74
2022/12/10 06:51:59;;;;;;;10.15;5.43;;;;;;;;;;5107183;28;20583;-75
2022/12/10 06:54:30;;;;;;;11.23;5.88;;;;;;;;;;5105366;28;20043;-72
2022/12/10 06:57:00;;;;;;;8.43;5.55;;;;;;;;;;5106838;28;20043;-74
2022/12/10 06:59:29;;;;;;;9.88;5.05;;;;;;;;;;5106681;28;20077;-73
2022/12/10 07:01:59;;;;;;;12.52;6.28;;;;;;;;;;5105821;28;20043;-74
2022/12/10 07:04:29;;;;;;;7.47;4.72;;;;;;;;;;5107609;28;20047;-73
2022/12/10 07:06:59;;;;;;;9.98;4.82;;;;;;;;;;5107247;28;20051;-76
2022/12/10 07:09:36;;;;;;;11.18;6.03;;;;;;;;;;5105692;28;20054;-74
2022/12/10 07:12:05;;;;;;;10.45;6.25;;;;;;;;;;5106923;28;20059;-73
2022/12/10 07:14:35;;;;;;;11.40;5.97;;;;;;;;;;5106498;28;20044;-75
2022/12/10 07:17:05;;;;;;;10.10;6.18;;;;;;;;;;5107001;28;20047;-74
2022/12/10 07:19:35;;;;;;;8.70;5.97;;;;;;;;;;5106314;28;20482;-74
2022/12/10 07:22:04;;;;;;;7.97;5.20;;;;;;;;;;5106466;28;20043;-74
2022/12/10 07:24:34;;;;;;;10.02;6.07;;;;;;;;;;5106792;28;20414;-74
2022/12/10 07:27:08;;;;;;;8.38;4.95;;;;;;;;;;5106957;28;20044;-72
2022/12/10 07:29:38;;;;;;;8.90;5.55;;;;;;;;;;5106837;28;20044;-75
2022/12/10 07:32:08;;;;;;;10.35;5.50;;;;;;;;;;5106835;28;20043;-75
2022/12/10 07:34:37;;;;;;;11.13;5.88;;;;;;;;;;5109823;28;20044;-72
2022/12/10 07:37:07;;;;;;;9.32;5.72;;;;;;;;;;5110630;28;20043;-74
2022/12/10 07:39:37;;;;;;;10.52;5.47;;;;;;;;;;5111055;28;20490;-73
2022/12/10 07:42:07;;;;;;;10.27;6.18;;;;;;;;;;5110545;28;20885;-74
2022/12/10 07:44:39;;;;;;;16.33;7.15;;;;;;;;;;5109903;28;20079;-73
2022/12/10 07:47:15;;;;;;;9.63;5.55;;;;;;;;;;5110237;28;20043;-75
2022/12/10 07:49:45;;;;;;;11.40;6.18;;;;;;;;;;5110496;28;20060;-75
2022/12/10 07:52:15;;;;;;;9.73;5.60;;;;;;;;;;5110665;28;20044;-73
2022/12/10 07:54:46;;;;;;;11.70;5.35;;;;;;;;;;5109964;28;20364;-74
2022/12/10 07:57:15;;;;;;;13.60;6.68;;;;;;;;;;5110769;28;20498;-73
2022/12/10 07:59:45;;;;;;;12.45;6.55;;;;;;;;;;5109142;28;20048;-74
2022/12/10 08:02:15;;;;;;;8.60;6.25;;;;;;;;;;5110512;28;20428;-72
2022/12/10 08:04:45;;;;;;;12.10;6.97;;;;;;;;;;5110439;28;20044;-72
2022/12/10 08:07:14;;;;;;;10.75;6.63;;;;;;;;;;5110387;28;20047;-74
2022/12/10 08:09:44;;;;;;;13.15;6.68;;;;;;;;;;5109015;28;20410;-73
2022/12/10 08:12:14;;;;;;;10.32;7.40;;;;;;;;;;5110299;28;20058;-73
2022/12/10 08:14:44;;;;;;;12.15;5.90;;;;;;;;;;5110191;28;20058;-73
2022/12/10 08:17:13;;;;;;;9.80;5.80;;;;;;;;;;5110117;28;20051;-75
2022/12/10 08:19:43;;;;;;;18.98;7.30;;;;;;;;;;5108588;28;20043;-73
2022/12/10 08:22:13;;;;;;;14.30;6.43;;;;;;;;;;5110236;28;20054;-74
2022/12/10 08:24:43;;;;;;;17.30;6.75;;;;;;;;;;5110429;28;20051;-75
2022/12/10 08:27:13;;;;;;;16.88;5.70;;;;;;;;;;5109624;28;20494;-74
2022/12/10 08:29:44;;;;;;;8.90;6.53;;;;;;;;;;5110415;28;20363;-73
2022/12/10 08:32:14;;;;;;;13.02;6.13;;;;;;;;;;5110009;28;20055;-72
2022/12/10 08:34:44;;;;;;;15.15;6.15;;;;;;;;;;5109782;28;20043;-74
2022/12/10 08:37:14;;;;;;;12.82;5.75;;;;;;;;;;5109736;28;20043;-72
2022/12/10 08:39:44;;;;;;;12.98;6.60;;;;;;;;;;5109614;28;20059;-75
2022/12/10 08:42:13;;;;;;;13.35;6.00;;;;;;;;;;5109840;28;20425;-73
2022/12/10 08:44:43;;;;;;;11.13;5.50;;;;;;;;;;5109418;28;20047;-73
2022/12/10 08:47:13;;;;;;;9.95;6.70;;;;;;;;;;5109546;28;20051;-75
2022/12/10 08:49:43;;;;;;;12.05;6.65;;;;;;;;;;5108443;28;20051;-72
2022/12/10 08:52:13;;;;;;;10.80;6.00;;;;;;;;;;5109421;28;20055;-74
2022/12/10 08:54:43;;;;;;;8.90;5.85;;;;;;;;;;5109601;28;20409;-75
2022/12/10 08:57:13;;;;;;;10.38;5.72;;;;;;;;;;5109442;28;20498;-75
2022/12/10 08:59:43;;;;;;;12.50;6.47;;;;;;;;;;5109671;28;20051;-74
2022/12/10 09:02:13;;;;;;;15.30;6.82;;;;;;;;;;5109685;28;20051;-75
2022/12/10 09:04:46;;;;;;;12.48;6.22;;;;;;;;;;5109144;28;20048;-75
2022/12/10 09:07:16;;;;;;;11.65;6.30;;;;;;;;;;5108883;28;20043;-74
2022/12/10 09:09:45;;;;;;;8.90;4.95;;;;;;;;;;5109250;28;20097;-74
2022/12/10 09:12:15;;;;;;;8.98;6.65;;;;;;;;;;5109397;28;20418;-74
2022/12/10 09:14:45;;;;;;;13.57;7.30;;;;;;;;;;5109207;28;20051;-73
2022/12/10 09:17:15;;;;;;;11.10;6.75;;;;;;;;;;5109258;28;20055;-73
2022/12/10 09:19:45;;;;;;;11.35;5.97;;;;;;;;;;5109444;28;20040;-74
2022/12/10 09:22:15;;;;;;;15.63;7.22;;;;;;;;;;5107562;28;20604;-75
2022/12/10 09:24:45;;;;;;;12.02;6.32;;;;;;;;;;5108949;28;20089;-73
2022/12/10 09:27:15;;;;;;;12.75;7.32;;;;;;;;;;5109392;28;20050;-74
2022/12/10 09:29:45;;;;;;;14.88;6.20;;;;;;;;;;5106692;28;20040;-74
2022/12/10 09:32:14;;;;;;;10.68;5.93;;;;;;;;;;5109088;28;20047;-72
2022/12/10 09:34:44;;;;;;;11.13;5.78;;;;;;;;;;5107069;28;20067;-75
2022/12/10 09:37:15;;;;;;;10.43;6.45;;;;;;;;;;5108612;28;20402;-74
2022/12/10 09:39:45;;;;;;;9.13;5.13;;;;;;;;;;5108424;28;20051;-73
2022/12/10 09:42:32;;;;;;;13.13;6.57;;;;;;;;;;5107786;28;20047;-75
2022/12/10 09:45:11;;;;;;;12.27;5.85;;;;;;;;;;5109082;28;20054;-75
2022/12/10 09:48:11;;;;;;;10.00;5.93;;;;;;;;;;5108065;28;20047;-73
2022/12/10 09:50:55;;;;;;;13.52;6.20;;;;;;;;;;5108349;28;20063;-76
2022/12/10 09:53:28;;;;;;;12.57;5.72;;;;;;;;;;5108133;28;20055;-74
2022/12/10 09:55:59;;;;;;;9.90;6.60;;;;;;;;;;5107326;28;20047;-74
2022/12/10 09:58:29;;;;;;;9.32;5.93;;;;;;;;;;5108062;28;20715;-75
2022/12/10 10:01:03;;;;;;;7.97;5.20;;;;;;;;;;5108456;28;20054;-74
2022/12/10 10:03:39;;;;;;;11.48;6.40;;;;;;;;;;5107967;28;20044;-74
2022/12/10 10:06:13;;;;;;;10.15;4.68;;;;;;;;;;5107748;28;20059;-75
2022/12/10 10:08:46;;;;;;;9.93;5.95;;;;;;;;;;5108428;28;20052;-73
2022/12/10 10:11:32;;;;;;;10.63;5.82;;;;;;;;;;5107937;28;20058;-73
2022/12/10 10:14:43;;;;;;;14.18;6.55;;;;;;;;;;5107557;28;20046;-75
2022/12/10 10:17:31;;;;;;;9.02;6.40;;;;;;;;;;5074846;28;20425;-75
2022/12/10 10:20:01;;;;;;;9.13;5.70;;;;;;;;;;5106015;27;20051;-73
2022/12/10 10:22:31;;;;;;;9.85;6.07;;;;;;;;;;5108142;28;20418;-74
2022/12/10 10:25:02;;;;;;;10.38;5.15;;;;;;;;;;5107357;28;20044;-75
2022/12/10 10:27:33;;;;;;;9.52;5.95;;;;;;;;;;5107410;28;20054;-73
2022/12/10 10:30:05;;;;;;;10.35;5.90;;;;;;;;;;5107315;28;20453;-75
2022/12/10 10:32:41;;;;;;;10.57;5.55;;;;;;;;;;5107262;28;20422;-76
2022/12/10 10:35:24;;;;;;;10.70;7.00;;;;;;;;;;5106126;28;20047;-77
2022/12/10 10:38:07;;;;;;;10.20;6.15;;;;;;;;;;5107878;28;20062;-74
2022/12/10 10:40:45;;;;;;;8.68;5.43;;;;;;;;;;5104503;28;20054;-75
2022/12/10 10:43:41;;;;;;;12.60;5.65;;;;;;;;;;5104016;28;20056;-78
2022/12/10 10:46:17;;;;;;;9.88;5.03;;;;;;;;;;5098257;28;20055;-76
2022/12/10 10:48:47;;;;;;;11.32;5.22;;;;;;;;;;5105026;28;20051;-75
2022/12/10 10:51:25;;;;;;;7.70;4.88;;;;;;;;;;5103828;28;20137;-74
2022/12/10 10:53:57;;;;;;;12.05;8.68;;;;;;;;;;5104546;28;20047;-75
2022/12/10 10:56:40;;;;;;;10.50;5.97;;;;;;;;;;5107188;28;20399;-74
2022/12/10 10:59:19;;;;;;;11.98;5.57;;;;;;;;;;5105991;28;20054;-74
2022/12/10 11:01:56;;;;;;;6.82;4.93;;;;;;;;;;5107886;28;20498;-74
2022/12/10 11:04:45;;;;;;;8.10;4.43;;;;;;;;;;5106974;28;20043;-73
2022/12/10 11:07:26;;;;;;;10.02;4.63;;;;;;;;;;5106680;28;20066;-74
2022/12/10 11:09:56;;;;;;;8.43;4.53;;;;;;;;;;5107012;28;20615;-74
2022/12/10 11:12:40;;;;;;;6.90;4.43;;;;;;;;;;5106994;28;20054;-75
2022/12/10 11:15:22;;;;;;;10.48;4.57;;;;;;;;;;5105031;28;20055;-74
2022/12/10 11:17:54;;;;;;;6.07;5.13;;;;;;;;;;5104516;28;20529;-76
2022/12/10 11:20:27;;;;;;;7.18;4.55;;;;;;;;;;5107169;28;20055;-76
2022/12/10 11:22:59;;;;;;;11.60;4.68;;;;;;;;;;5106681;28;20047;-81
2022/12/10 11:25:55;;;;;;;6.20;4.28;;;;;;;;;;5104760;28;20044;-75
2022/12/10 11:28:31;;;;;;;9.20;4.68;;;;;;;;;;5106159;28;20510;-76
2022/12/10 11:31:10;;;;;;;4.75;3.85;;;;;;;;;;5107467;28;20050;-77
2022/12/10 11:34:04;;;;;;;7.50;4.43;;;;;;;;;;5106319;28;20459;-73
2022/12/10 11:37:10;;;;;;;7.43;4.65;;;;;;;;;;5101024;28;20063;-75
2022/12/10 11:40:12;;;;;;;8.40;4.88;;;;;;;;;;5106181;28;20039;-75
2022/12/10 11:43:03;;;;;;;14.45;5.85;;;;;;;;;;5104843;28;20052;-76
2022/12/10 11:46:06;;;;;;;8.45;5.10;;;;;;;;;;5106507;28;20066;-76
2022/12/10 11:48:56;;;;;;;9.82;5.22;;;;;;;;;;5105318;28;20052;-74
2022/12/10 11:52:04;;;;;;;9.45;4.30;;;;;;;;;;5104318;28;20132;-75
2022/12/10 11:54:37;;;;;;;19.15;16.98;;;;;;;;;;5099667;28;20055;-73
2022/12/10 11:57:07;;;;;;;8.90;4.93;;;;;;;;;;5106366;28;20063;-74
2022/12/10 12:00:14;;;;;;;10.48;5.30;;;;;;;;;;5104781;28;20047;-75
2022/12/10 12:02:49;;;;;;;7.07;4.78;;;;;;;;;;5106729;28;20051;-74
2022/12/10 12:05:36;;;;;;;6.95;4.22;;;;;;;;;;5106027;28;20052;-75
2022/12/10 12:08:34;;;;;;;6.20;4.30;;;;;;;;;;5106152;28;20387;-75
2022/12/10 12:11:38;;;;;;;10.73;4.63;;;;;;;;;;5086747;28;20067;-76
2022/12/10 12:14:32;;;;;;;7.22;4.28;;;;;;;;;;5103950;28;20059;-75
2022/12/10 12:17:10;;;;;;;4.70;4.22;;;;;;;;;;5099245;28;20086;-75
2022/12/10 12:19:59;;;;;;;7.85;5.85;;;;;;;;;;5108179;28;20063;-74
2022/12/10 12:22:37;;;;;;;6.78;4.22;;;;;;;;;;5110544;28;20067;-74
2022/12/10 12:25:16;;;;;;;7.13;4.82;;;;;;;;;;5110195;28;20423;-73
2022/12/10 12:28:04;;;;;;;11.00;5.15;;;;;;;;;;5109779;28;20051;-76
2022/12/10 12:30:36;;;;;;;6.18;4.05;;;;;;;;;;5109798;28;20047;-71
2022/12/10 12:33:16;;;;;;;11.07;5.38;;;;;;;;;;5109776;28;20044;-71
2022/12/10 12:35:55;;;;;;;6.65;4.10;;;;;;;;;;5109787;28;20044;-75
2022/12/10 12:38:46;;;;;;;5.05;3.83;;;;;;;;;;5109562;28;20040;-77
2022/12/10 12:41:36;;;;;;;7.95;3.60;;;;;;;;;;5108956;28;20047;-76
2022/12/10 12:44:32;;;;;;;8.07;3.80;;;;;;;;;;5109574;28;20048;-76
2022/12/10 12:47:14;;;;;;;8.23;4.30;;;;;;;;;;5109908;28;20058;-74
2022/12/10 12:49:45;;;;;;;7.78;3.80;;;;;;;;;;5109521;28;20048;-75
2022/12/10 12:52:36;;;;;;;6.80;3.97;;;;;;;;;;5109351;28;20048;-75
2022/12/10 12:55:43;;;;;;;9.73;3.78;;;;;;;;;;5109383;28;20043;-76
2022/12/10 12:58:58;;;;;;;4.25;3.20;;;;;;;;;;5108997;28;20044;-74
2022/12/10 13:01:49;;;;;;;5.97;3.80;;;;;;;;;;5093487;28;20047;-74
2022/12/10 13:04:20;;;;;;;7.43;3.53;;;;;;;;;;5109103;28;20059;-76
2022/12/10 13:07:14;;;;;;;7.22;3.33;;;;;;;;;;5109353;28;20051;-74
2022/12/10 13:09:45;;;;;;;5.90;3.30;;;;;;;;;;5109371;28;20071;-74
2022/12/10 13:12:14;;;;;;;6.53;3.42;;;;;;;;;;5109171;28;20525;-75
2022/12/10 13:15:16;;;;;;;7.95;3.60;;;;;;;;;;5109254;28;20047;-75
2022/12/10 13:18:10;;;;;;;8.40;4.38;;;;;;;;;;5093991;28;20533;-75
2022/12/10 13:21:07;;;;;;;4.75;3.75;;;;;;;;;;5108047;28;20063;-74
2022/12/10 13:23:54;;;;;;;5.72;3.15;;;;;;;;;;5108719;28;20075;-74
2022/12/10 13:26:28;;;;;;;;;;;;;;;;;;5109341;28;20036;-76
2022/12/10 13:29:13;;;;;;;7.13;3.80;;;;;;;;;;5108693;28;19931;-75
2022/12/10 13:32:18;;;;;;;6.40;3.50;;;;;;;;;;5106916;28;20059;-77
2022/12/10 13:35:08;;;;;;;7.28;3.20;;;;;;;;;;5102142;28;20058;-76
2022/12/10 13:37:53;;;;;;;4.22;3.63;;;;;;;;;;5108124;28;20054;-77
2022/12/10 13:46:27;;;;;;;6.25;3.50;;;;;;;;;;5106587;28;20044;-74
2022/12/10 13:49:15;;;;;;;4.88;3.30;;;;;;;;;;5108220;28;20051;-73
2022/12/10 13:52:06;;;;;;;6.78;4.05;;;;;;;;;;5108091;28;20407;-72
2022/12/10 13:54:41;;;;;;;7.20;3.60;;;;;;;;;;5108273;28;20517;-73
2022/12/10 13:57:36;;;;;;;6.47;3.40;;;;;;;;;;5108351;28;20043;-75
2022/12/10 14:00:47;;;;;;;7.32;3.20;;;;;;;;;;5108487;28;20043;-74
2022/12/10 14:03:50;;;;;;;6.30;3.20;;;;;;;;;;5108373;28;20048;-73
2022/12/10 14:06:22;;;;;;;4.78;3.13;;;;;;;;;;5106993;28;20039;-75
2022/12/10 14:09:10;;;;;;;6.45;3.17;;;;;;;;;;5108750;28;20050;-73
2022/12/10 14:12:04;;;;;;;8.70;3.85;;;;;;;;;;5106222;28;20055;-75
2022/12/10 14:14:41;;;;;;;7.55;3.53;;;;;;;;;;5107902;28;20050;-71
2022/12/10 14:17:19;;;;;;;6.65;3.30;;;;;;;;;;5106216;28;20050;-73
2022/12/10 14:19:55;;;;;;;5.63;3.40;;;;;;;;;;5107844;28;20055;-73
2022/12/10 14:22:32;;;;;;;5.65;3.72;;;;;;;;;;5107818;28;20043;-75
2022/12/10 14:25:14;;;;;;;6.82;3.55;;;;;;;;;;5108503;28;20043;-78
2022/12/10 14:27:47;;;;;;;5.55;4.65;;;;;;;;;;5107792;28;20044;-73
2022/12/10 14:30:21;;;;;;;5.00;3.53;;;;;;;;;;5107472;28;20062;-76
2022/12/10 14:32:58;;;;;;;8.45;4.10;;;;;;;;;;5107524;28;20051;-76
2022/12/10 14:35:29;;;;;;;7.65;4.03;;;;;;;;;;5107371;28;20054;-79
2022/12/10 14:38:01;;;;;;;7.45;3.50;;;;;;;;;;5107229;28;20054;-74
2022/12/10 14:40:42;;;;;;;5.07;3.35;;;;;;;;;;5107422;28;20070;-75
2022/12/10 14:43:17;;;;;;;4.95;3.28;;;;;;;;;;5107040;28;20518;-75
2022/12/10 14:45:48;;;;;;;6.07;3.60;;;;;;;;;;5108303;28;20521;-74
2022/12/10 14:48:18;;;;;;;5.25;3.28;;;;;;;;;;5104646;28;20055;-75
2022/12/10 14:50:49;;;;;;;10.23;4.10;;;;;;;;;;5107253;28;20426;-73
2022/12/10 14:53:28;;;;;;;3.13;2.47;;;;;;;;;;5107239;28;20040;-74
2022/12/10 14:56:05;;;;;;;7.10;2.20;;;;;;;;;;5107647;28;20066;-75
2022/12/10 14:58:38;;;;;;;3.72;2.72;;;;;;;;;;5106926;28;20506;-74
2022/12/10 15:01:17;;;;;;;5.28;2.55;;;;;;;;;;5107357;28;20044;-76
2022/12/10 15:03:48;;;;;;;6.00;2.60;;;;;;;;;;5107961;28;20050;-75
2022/12/10 15:06:19;;;;;;;4.00;3.15;;;;;;;;;;5106978;28;20410;-75
2022/12/10 15:08:52;;;;;;;7.07;2.90;;;;;;;;;;5105870;28;20062;-76
2022/12/10 15:11:26;;;;;;;3.28;2.40;;;;;;;;;;5106308;28;20054;-75
2022/12/10 15:14:03;;;;;;;7.75;3.35;;;;;;;;;;5107424;28;20418;-74
2022/12/10 15:16:42;;;;;;;6.53;3.20;;;;;;;;;;5106850;28;20066;-75
2022/12/10 15:19:38;;;;;;;4.88;2.90;;;;;;;;;;5107073;28;20604;-74
2022/12/10 15:22:19;;;;;;;5.28;3.15;;;;;;;;;;5105921;28;20482;-76
2022/12/10 15:24:49;;;;;;;5.50;2.88;;;;;;;;;;5106573;28;20399;-74
2022/12/10 15:27:25;;;;;;;9.38;2.55;;;;;;;;;;5106820;28;20052;-75
2022/12/10 15:29:56;;;;;;;3.72;2.30;;;;;;;;;;5106695;28;20058;-73
2022/12/10 15:32:28;;;;;;;4.35;2.40;;;;;;;;;;5107102;28;20047;-75
2022/12/10 15:35:06;;;;;;;3.42;2.53;;;;;;;;;;5106614;28;20819;-77
2022/12/10 15:37:45;;;;;;;5.35;2.53;;;;;;;;;;5106420;28;20047;-74
2022/12/10 15:40:30;;;;;;;6.18;2.33;;;;;;;;;;5106200;28;20062;-76
2022/12/10 15:43:24;;;;;;;6.50;2.58;;;;;;;;;;5105806;28;20048;-78
2022/12/10 15:45:57;;;;;;;8.32;2.60;;;;;;;;;;5106539;28;20070;-74
2022/12/10 15:48:31;;;;;;;3.85;2.53;;;;;;;;;;5104854;28;20047;-73
2022/12/10 15:51:06;;;;;;;4.30;2.35;;;;;;;;;;5106515;28;20054;-75